In Rescue
 
Open Full Screen Window  High Contrast Mode
Wind Gusting 00 knots
04
August 09, 2020 5:50 PM CDT
Weather Information
Wind Direction
  230 °
Wind Speed
  04 kt (5 mph)
Wind Gust
  00 kt (0 mph)
Altimeter
29.81 in
Visibility
10 SM
Temperature
30° C
86° F
Dewpoint
25° C
77° F
Humidity
75%
1hr Rain Fall
00.00 in.
24hr Rain Fall
00.96 in.
Sky Condition
Scattered @ 3,900 ft
Scattered @ 3,100 ft
VFR

METAR KHCD 092250Z AUTO 23004KT 10SM SCT031 SCT039 30/25 A2981 RMK AO2 T03000248

FAA Disclaimer: The data displayed is for advisory purposes only and is not to be used for flight planning or operations.